Time;durP1;ratioP1;P1;durP2;ratioP2;P2;SDS_P1;SDS_P2;PMS_P1;PMS_P2;Temp;Humidity;BMP_temperature;BMP_pressure;BME280_temperature;BME280_humidity;BME280_pressure;Samples;Min_cycle;Max_cycle;Signal;HPM_P1;HPM_P2
2021/12/03 00:00:23;;;;;;;9.97;5.37;;;;;;;;;;5046013;28;20207;-60
2021/12/03 00:02:49;;;;;;;8.83;4.90;;;;;;;;;;5056860;28;20671;-60
2021/12/03 00:05:14;;;;;;;9.13;4.47;;;;;;;;;;5055312;28;20210;-60
2021/12/03 00:07:41;;;;;;;8.33;4.70;;;;;;;;;;5055720;28;20241;-60
2021/12/03 00:10:07;;;;;;;6.87;4.23;;;;;;;;;;5061694;28;20879;-60
2021/12/03 00:12:32;;;;;;;9.33;4.60;;;;;;;;;;5064105;28;20291;-60
2021/12/03 00:14:58;;;;;;;10.17;4.73;;;;;;;;;;5064063;28;20616;-60
2021/12/03 00:17:23;;;;;;;7.17;4.20;;;;;;;;;;5062668;28;20214;-60
2021/12/03 00:19:48;;;;;;;6.77;4.10;;;;;;;;;;5045672;28;20237;-60
2021/12/03 00:22:13;;;;;;;6.93;4.10;;;;;;;;;;5063258;28;20235;-60
2021/12/03 00:24:39;;;;;;;8.37;4.80;;;;;;;;;;5059068;28;20226;-60
2021/12/03 00:27:05;;;;;;;8.83;4.83;;;;;;;;;;5055407;28;20229;-60
2021/12/03 00:29:30;;;;;;;9.23;4.57;;;;;;;;;;5054887;28;20966;-60
2021/12/03 00:31:55;;;;;;;10.30;5.83;;;;;;;;;;5060112;28;20250;-60
2021/12/03 00:34:21;;;;;;;9.70;5.23;;;;;;;;;;5063269;28;20601;-60
2021/12/03 00:36:46;;;;;;;8.93;5.23;;;;;;;;;;5063312;28;20209;-60
2021/12/03 00:39:11;;;;;;;9.50;5.87;;;;;;;;;;5045346;28;20214;-60
2021/12/03 00:41:45;;;;;;;11.57;5.20;;;;;;;;;;5064922;28;20656;-60
2021/12/03 00:44:10;;;;;;;10.47;5.43;;;;;;;;;;5066311;28;20214;-60
2021/12/03 00:46:35;;;;;;;11.10;5.43;;;;;;;;;;5064673;28;20210;-60
2021/12/03 00:49:01;;;;;;;9.23;4.90;;;;;;;;;;5058415;28;20701;-60
2021/12/03 00:51:26;;;;;;;12.67;5.60;;;;;;;;;;5040238;28;20220;-60
2021/12/03 00:53:51;;;;;;;8.40;5.13;;;;;;;;;;5060847;28;20207;-60
2021/12/03 00:56:17;;;;;;;9.60;5.50;;;;;;;;;;5049049;28;20222;-60
2021/12/03 00:58:42;;;;;;;10.73;5.03;;;;;;;;;;5066437;28;20210;-60
2021/12/03 01:01:07;;;;;;;9.73;4.63;;;;;;;;;;5066961;28;20214;-60
2021/12/03 01:03:33;;;;;;;6.87;3.93;;;;;;;;;;5067055;28;20584;-60
2021/12/03 01:05:58;;;;;;;11.90;5.17;;;;;;;;;;5048337;28;20209;-60
2021/12/03 01:08:23;;;;;;;10.30;4.90;;;;;;;;;;5065718;28;20571;-60
2021/12/03 01:10:49;;;;;;;10.03;4.63;;;;;;;;;;5041172;28;20582;-60
2021/12/03 01:13:14;;;;;;;9.57;4.90;;;;;;;;;;5039511;28;20233;-60
2021/12/03 01:15:39;;;;;;;8.30;4.70;;;;;;;;;;5058903;28;20218;-60
2021/12/03 01:18:05;;;;;;;9.83;4.77;;;;;;;;;;5048523;28;20226;-60
2021/12/03 01:20:31;;;;;;;10.63;5.50;;;;;;;;;;5065573;28;20557;-60
2021/12/03 01:22:56;;;;;;;11.10;5.23;;;;;;;;;;5066839;28;20234;-60
2021/12/03 01:25:21;;;;;;;10.30;5.00;;;;;;;;;;5065892;28;20214;-60
2021/12/03 01:27:47;;;;;;;7.97;4.90;;;;;;;;;;5048246;28;20332;-60
2021/12/03 01:30:13;;;;;;;9.60;4.70;;;;;;;;;;5065940;28;20211;-60
2021/12/03 01:32:38;;;;;;;10.00;5.27;;;;;;;;;;5060636;28;20301;-60
2021/12/03 01:35:04;;;;;;;9.67;5.50;;;;;;;;;;5056581;28;20515;-60
2021/12/03 01:37:29;;;;;;;11.47;6.17;;;;;;;;;;5039995;28;20214;-60
2021/12/03 01:39:54;;;;;;;10.53;5.60;;;;;;;;;;5063976;28;20214;-60
2021/12/03 01:42:20;;;;;;;9.70;5.00;;;;;;;;;;5065873;28;20222;-60
2021/12/03 01:44:45;;;;;;;8.27;5.20;;;;;;;;;;5066494;28;20210;-60
2021/12/03 01:47:10;;;;;;;9.10;5.53;;;;;;;;;;5046805;28;20589;-60
2021/12/03 01:49:35;;;;;;;10.93;5.27;;;;;;;;;;5066473;28;20301;-60
2021/12/03 01:52:01;;;;;;;10.67;5.63;;;;;;;;;;5065593;28;20207;-60
2021/12/03 01:54:26;;;;;;;11.23;5.63;;;;;;;;;;5060287;28;21079;-60
2021/12/03 01:56:51;;;;;;;9.97;5.87;;;;;;;;;;5057625;28;20210;-60
2021/12/03 01:59:17;;;;;;;9.87;4.90;;;;;;;;;;5056922;28;20214;-60
2021/12/03 02:01:42;;;;;;;8.30;5.50;;;;;;;;;;5061007;28;20241;-60
2021/12/03 02:04:07;;;;;;;9.70;5.30;;;;;;;;;;5065822;28;20210;-60
2021/12/03 02:06:32;;;;;;;11.70;6.40;;;;;;;;;;5065621;28;20222;-60
2021/12/03 02:08:58;;;;;;;12.33;6.40;;;;;;;;;;5065303;28;20222;-60
2021/12/03 02:11:23;;;;;;;10.17;6.33;;;;;;;;;;5046962;28;20684;-60
2021/12/03 02:13:49;;;;;;;9.13;6.43;;;;;;;;;;5048150;28;20965;-60
2021/12/03 02:16:14;;;;;;;12.50;6.50;;;;;;;;;;5062563;28;20211;-60
2021/12/03 02:18:39;;;;;;;8.30;6.03;;;;;;;;;;5057652;28;20210;-60
2021/12/03 02:21:05;;;;;;;10.03;5.90;;;;;;;;;;5056396;28;20210;-60
2021/12/03 02:23:30;;;;;;;10.07;5.93;;;;;;;;;;5057905;28;20211;-60
2021/12/03 02:25:55;;;;;;;12.60;6.70;;;;;;;;;;5065531;28;20229;-60
2021/12/03 02:28:21;;;;;;;9.17;6.60;;;;;;;;;;5064946;28;20669;-60
2021/12/03 02:30:47;;;;;;;10.73;6.73;;;;;;;;;;5064735;28;20637;-60
2021/12/03 02:33:12;;;;;;;11.03;6.63;;;;;;;;;;5064941;28;20210;-60
2021/12/03 02:35:40;;;;;;;9.77;5.83;;;;;;;;;;5065715;28;20215;-60
2021/12/03 02:38:05;;;;;;;10.50;6.00;;;;;;;;;;5064016;28;20217;-60
2021/12/03 02:40:30;;;;;;;9.80;6.07;;;;;;;;;;5056833;28;20214;-60
2021/12/03 02:42:56;;;;;;;12.17;6.47;;;;;;;;;;5056461;28;20218;-60
2021/12/03 02:45:21;;;;;;;10.50;6.73;;;;;;;;;;5037184;28;20559;-60
2021/12/03 02:47:46;;;;;;;10.17;6.43;;;;;;;;;;5064275;28;20226;-60
2021/12/03 02:50:12;;;;;;;9.63;6.53;;;;;;;;;;5063762;28;20297;-60
2021/12/03 02:52:38;;;;;;;12.47;7.33;;;;;;;;;;5064245;28;20259;-60
2021/12/03 02:55:04;;;;;;;12.90;7.23;;;;;;;;;;5063945;28;20715;-60
2021/12/03 02:57:29;;;;;;;11.67;8.50;;;;;;;;;;5063828;28;20206;-60
2021/12/03 02:59:54;;;;;;;12.43;7.33;;;;;;;;;;5064787;28;20210;-60
2021/12/03 03:02:20;;;;;;;14.10;7.23;;;;;;;;;;5058088;28;20743;-60
2021/12/03 03:04:45;;;;;;;16.53;7.60;;;;;;;;;;5055415;28;20210;-60
2021/12/03 03:07:10;;;;;;;13.60;7.83;;;;;;;;;;5036905;28;20229;-60
2021/12/03 03:09:36;;;;;;;15.40;8.47;;;;;;;;;;5062341;28;20218;-60
2021/12/03 03:12:01;;;;;;;13.57;9.30;;;;;;;;;;5044913;28;20198;-61
2021/12/03 03:14:27;;;;;;;16.93;9.30;;;;;;;;;;5064423;28;20678;-60
2021/12/03 03:16:52;;;;;;;11.80;8.13;;;;;;;;;;5064180;28;20206;-60
2021/12/03 03:19:18;;;;;;;12.30;8.37;;;;;;;;;;5063198;28;20670;-60
2021/12/03 03:21:44;;;;;;;14.70;7.77;;;;;;;;;;5064079;28;20246;-60
2021/12/03 03:24:09;;;;;;;14.60;8.60;;;;;;;;;;5060398;28;20335;-60
2021/12/03 03:26:35;;;;;;;15.53;8.40;;;;;;;;;;5055275;28;20594;-60
2021/12/03 03:29:00;;;;;;;14.63;7.57;;;;;;;;;;5036835;28;20225;-62
2021/12/03 03:31:25;;;;;;;15.80;9.07;;;;;;;;;;5059423;28;20226;-60
2021/12/03 03:33:51;;;;;;;15.90;8.80;;;;;;;;;;5045164;28;20646;-60
2021/12/03 03:36:16;;;;;;;13.47;9.13;;;;;;;;;;5046004;28;20233;-60
2021/12/03 03:38:41;;;;;;;13.53;8.90;;;;;;;;;;5063709;28;20259;-60
2021/12/03 03:41:06;;;;;;;16.43;9.37;;;;;;;;;;5062586;28;20214;-60
2021/12/03 03:43:32;;;;;;;13.00;7.97;;;;;;;;;;5063628;28;20223;-60
2021/12/03 03:45:57;;;;;;;14.07;8.50;;;;;;;;;;5062676;28;20272;-60
2021/12/03 03:48:24;;;;;;;14.13;8.63;;;;;;;;;;5054409;28;20222;-60
2021/12/03 03:50:49;;;;;;;17.43;9.60;;;;;;;;;;5055892;28;20221;-60
2021/12/03 03:53:14;;;;;;;13.97;8.50;;;;;;;;;;5037552;28;20214;-60
2021/12/03 03:55:40;;;;;;;14.07;9.17;;;;;;;;;;5063305;28;20239;-60
2021/12/03 03:58:05;;;;;;;11.93;8.33;;;;;;;;;;5063282;28;20226;-60
2021/12/03 04:00:33;;;;;;;13.03;8.40;;;;;;;;;;5063530;28;20210;-60
2021/12/03 04:02:58;;;;;;;17.27;8.90;;;;;;;;;;5063879;28;20218;-60
2021/12/03 04:05:23;;;;;;;15.83;9.30;;;;;;;;;;5045524;28;20768;-60
2021/12/03 04:07:48;;;;;;;17.70;9.07;;;;;;;;;;5062966;28;20243;-60
2021/12/03 04:10:14;;;;;;;12.30;7.90;;;;;;;;;;5056323;28;20280;-60
2021/12/03 04:12:39;;;;;;;14.20;9.00;;;;;;;;;;5055200;28;20213;-60
2021/12/03 04:15:05;;;;;;;13.03;8.90;;;;;;;;;;5035730;28;20218;-60
2021/12/03 04:17:30;;;;;;;16.27;8.63;;;;;;;;;;5046951;28;20214;-60
2021/12/03 04:19:56;;;;;;;14.60;9.17;;;;;;;;;;5048732;28;20213;-60
2021/12/03 04:22:24;;;;;;;15.97;10.50;;;;;;;;;;5066155;28;20222;-60
2021/12/03 04:24:50;;;;;;;16.63;10.57;;;;;;;;;;5067159;28;20211;-60
2021/12/03 04:27:16;;;;;;;16.40;9.57;;;;;;;;;;5066957;28;20843;-60
2021/12/03 04:29:41;;;;;;;15.50;9.73;;;;;;;;;;5066412;28;20229;-60
2021/12/03 04:32:08;;;;;;;16.33;10.67;;;;;;;;;;5062329;28;20215;-60
2021/12/03 04:34:33;;;;;;;17.37;10.67;;;;;;;;;;5058999;28;20202;-60
2021/12/03 04:36:58;;;;;;;17.67;11.53;;;;;;;;;;5040468;28;20674;-60
2021/12/03 04:39:24;;;;;;;17.93;10.60;;;;;;;;;;5062815;28;20526;-60
2021/12/03 04:41:49;;;;;;;17.80;12.47;;;;;;;;;;5067241;28;20229;-60
2021/12/03 04:44:14;;;;;;;20.47;12.23;;;;;;;;;;5065508;28;20687;-60
2021/12/03 04:46:39;;;;;;;19.43;13.20;;;;;;;;;;5066726;28;20216;-61
2021/12/03 04:49:05;;;;;;;18.27;12.43;;;;;;;;;;5066542;28;20240;-60
2021/12/03 04:51:30;;;;;;;22.27;13.97;;;;;;;;;;5066202;28;20213;-60
2021/12/03 04:53:55;;;;;;;22.47;14.77;;;;;;;;;;5064022;28;20210;-60
2021/12/03 04:56:20;;;;;;;22.73;15.67;;;;;;;;;;5058296;28;20234;-60
2021/12/03 04:58:46;;;;;;;30.20;17.53;;;;;;;;;;5057521;28;20213;-60
2021/12/03 05:01:11;;;;;;;32.13;18.30;;;;;;;;;;5042214;28;20206;-60
2021/12/03 05:03:37;;;;;;;27.63;17.17;;;;;;;;;;5066885;28;20689;-60
2021/12/03 05:06:03;;;;;;;27.27;18.30;;;;;;;;;;5065449;28;20234;-61
2021/12/03 05:08:29;;;;;;;31.80;19.03;;;;;;;;;;5048570;28;20268;-60
2021/12/03 05:10:54;;;;;;;39.27;21.10;;;;;;;;;;5065438;28;20218;-60
2021/12/03 05:13:21;;;;;;;37.60;22.13;;;;;;;;;;5065677;28;20662;-60
2021/12/03 05:15:46;;;;;;;37.53;21.87;;;;;;;;;;5066200;28;20215;-60
2021/12/03 05:18:12;;;;;;;41.03;23.40;;;;;;;;;;5057012;28;20213;-61
2021/12/03 05:20:38;;;;;;;46.67;24.33;;;;;;;;;;5039452;28;20210;-60
2021/12/03 05:23:03;;;;;;;40.40;23.13;;;;;;;;;;5057701;28;20230;-60
2021/12/03 05:25:29;;;;;;;47.03;23.90;;;;;;;;;;5065218;28;20403;-60
2021/12/03 05:27:54;;;;;;;46.53;24.20;;;;;;;;;;5047818;28;20218;-60
2021/12/03 05:30:19;;;;;;;51.23;25.60;;;;;;;;;;5047553;28;20207;-60
2021/12/03 05:32:45;;;;;;;53.17;26.37;;;;;;;;;;5065814;28;20215;-60
2021/12/03 05:35:10;;;;;;;52.30;25.63;;;;;;;;;;5054971;28;20669;-60
2021/12/03 05:37:35;;;;;;;53.33;27.13;;;;;;;;;;5066287;28;20224;-60
2021/12/03 05:40:00;;;;;;;53.40;25.77;;;;;;;;;;5058625;28;20272;-61
2021/12/03 05:42:26;;;;;;;59.50;27.03;;;;;;;;;;5039400;28;20328;-60
2021/12/03 05:44:53;;;;;;;55.03;26.77;;;;;;;;;;5056986;28;20227;-60
2021/12/03 05:47:18;;;;;;;58.30;27.50;;;;;;;;;;5062626;28;20238;-60
2021/12/03 05:49:43;;;;;;;52.60;26.33;;;;;;;;;;5065799;28;20215;-60
2021/12/03 05:52:09;;;;;;;56.00;26.73;;;;;;;;;;5065483;28;20236;-60
2021/12/03 05:54:34;;;;;;;58.20;29.00;;;;;;;;;;5064676;28;20210;-60
2021/12/03 05:56:59;;;;;;;60.30;28.43;;;;;;;;;;5047782;28;20559;-60
2021/12/03 05:59:24;;;;;;;64.93;29.63;;;;;;;;;;5065283;28;20207;-60
2021/12/03 06:01:50;;;;;;;55.33;27.33;;;;;;;;;;5060945;28;20218;-60
2021/12/03 06:04:15;;;;;;;55.93;28.17;;;;;;;;;;5057322;28;20301;-60
2021/12/03 06:06:40;;;;;;;60.33;27.67;;;;;;;;;;5056774;28;20569;-60
2021/12/03 06:09:05;;;;;;;55.43;27.40;;;;;;;;;;5059960;28;20221;-60
2021/12/03 06:11:31;;;;;;;55.53;27.83;;;;;;;;;;5064743;28;20213;-60
2021/12/03 06:13:56;;;;;;;51.70;27.67;;;;;;;;;;5068368;28;20202;-61
2021/12/03 06:16:21;;;;;;;62.23;30.47;;;;;;;;;;5058570;28;20207;-60
2021/12/03 06:18:47;;;;;;;55.60;28.70;;;;;;;;;;5055715;28;20280;-61
2021/12/03 06:21:12;;;;;;;59.37;29.30;;;;;;;;;;5068036;28;20308;-61
2021/12/03 06:23:38;;;;;;;65.83;37.47;;;;;;;;;;5036754;28;20444;-61
2021/12/03 06:26:03;;;;;;;59.53;31.50;;;;;;;;;;5064107;28;20740;-63
2021/12/03 06:28:29;;;;;;;58.50;30.33;;;;;;;;;;5052465;28;20203;-61
2021/12/03 06:30:54;;;;;;;58.07;30.90;;;;;;;;;;5035377;28;20215;-61
2021/12/03 06:33:19;;;;;;;68.83;31.60;;;;;;;;;;5053093;28;20219;-61
2021/12/03 06:35:45;;;;;;;59.00;30.17;;;;;;;;;;5052319;28;20738;-61
2021/12/03 06:38:11;;;;;;;58.33;30.07;;;;;;;;;;5034731;28;20214;-61
2021/12/03 06:40:36;;;;;;;59.33;28.97;;;;;;;;;;5052650;28;20215;-61
2021/12/03 06:43:01;;;;;;;60.47;30.67;;;;;;;;;;5054993;28;20643;-62
2021/12/03 06:45:26;;;;;;;72.23;34.83;;;;;;;;;;5066764;28;20211;-61
2021/12/03 06:47:52;;;;;;;58.67;30.17;;;;;;;;;;5052586;28;20654;-60
2021/12/03 06:50:18;;;;;;;61.50;30.23;;;;;;;;;;5061952;28;20741;-61
2021/12/03 06:52:46;;;;;;;61.70;30.27;;;;;;;;;;5072701;28;20222;-61
2021/12/03 06:55:14;;;;;;;61.23;31.43;;;;;;;;;;5071705;28;20215;-61
2021/12/03 06:57:41;;;;;;;63.27;31.27;;;;;;;;;;5050904;28;20326;-61
2021/12/03 07:00:07;;;;;;;60.60;31.07;;;;;;;;;;5062015;28;20210;-60
2021/12/03 07:02:32;;;;;;;59.70;29.40;;;;;;;;;;5055452;28;20357;-61
2021/12/03 07:04:57;;;;;;;61.10;29.27;;;;;;;;;;5052347;28;20207;-61
2021/12/03 07:07:23;;;;;;;65.30;31.17;;;;;;;;;;5051897;28;20701;-61
2021/12/03 07:09:48;;;;;;;65.67;32.30;;;;;;;;;;5052521;28;20575;-61
2021/12/03 07:12:15;;;;;;;50.27;26.00;;;;;;;;;;5051098;28;20215;-63
2021/12/03 07:14:40;;;;;;;60.83;29.83;;;;;;;;;;5040426;28;20273;-61
2021/12/03 07:17:06;;;;;;;61.80;30.63;;;;;;;;;;5071356;28;20215;-61
2021/12/03 07:19:32;;;;;;;64.33;31.50;;;;;;;;;;5060736;28;20216;-62
2021/12/03 07:21:57;;;;;;;55.00;27.13;;;;;;;;;;5047590;28;20215;-62
2021/12/03 07:24:22;;;;;;;53.60;26.60;;;;;;;;;;5062447;28;20217;-61
2021/12/03 07:26:48;;;;;;;52.77;27.43;;;;;;;;;;5059892;28;20202;-61
2021/12/03 07:29:13;;;;;;;53.30;25.90;;;;;;;;;;5061095;28;20207;-61
2021/12/03 07:31:38;;;;;;;45.10;23.83;;;;;;;;;;5060394;28;20194;-61
2021/12/03 07:34:04;;;;;;;48.00;25.07;;;;;;;;;;5062295;28;20760;-61
2021/12/03 07:36:29;;;;;;;42.97;21.23;;;;;;;;;;5046141;28;20198;-62
2021/12/03 07:38:54;;;;;;;41.13;21.70;;;;;;;;;;5067285;28;20768;-62
2021/12/03 07:41:20;;;;;;;39.80;21.77;;;;;;;;;;5068537;28;20218;-62
2021/12/03 07:43:45;;;;;;;44.67;21.53;;;;;;;;;;5062972;28;20279;-62
2021/12/03 07:46:10;;;;;;;42.17;19.37;;;;;;;;;;5051641;28;20198;-62
2021/12/03 07:48:37;;;;;;;38.60;18.80;;;;;;;;;;5051297;28;20701;-62
2021/12/03 07:51:02;;;;;;;35.13;18.30;;;;;;;;;;5059594;28;20207;-61
2021/12/03 07:53:27;;;;;;;32.97;16.23;;;;;;;;;;5058004;28;20206;-62
2021/12/03 07:55:53;;;;;;;32.87;16.33;;;;;;;;;;5064487;28;20264;-62
2021/12/03 07:58:18;;;;;;;33.03;15.50;;;;;;;;;;5055241;28;20207;-62
2021/12/03 08:00:44;;;;;;;33.70;15.10;;;;;;;;;;5055222;28;20211;-62
2021/12/03 08:03:10;;;;;;;31.83;13.63;;;;;;;;;;5037741;28;20231;-62
2021/12/03 08:05:35;;;;;;;29.07;13.30;;;;;;;;;;5056067;28;20214;-62
2021/12/03 08:08:01;;;;;;;32.37;12.97;;;;;;;;;;5036651;28;20206;-62
2021/12/03 08:10:26;;;;;;;31.03;14.00;;;;;;;;;;5059770;28;20225;-62
2021/12/03 08:12:51;;;;;;;28.70;11.57;;;;;;;;;;5069633;28;20210;-62
2021/12/03 08:15:17;;;;;;;24.90;11.63;;;;;;;;;;5045058;28;20648;-62
2021/12/03 08:17:42;;;;;;;27.10;10.63;;;;;;;;;;5066695;28;20614;-62
2021/12/03 08:20:08;;;;;;;24.23;9.87;;;;;;;;;;5055071;28;20214;-62
2021/12/03 08:22:33;;;;;;;21.13;9.20;;;;;;;;;;5054622;28;20231;-62
2021/12/03 08:24:59;;;;;;;22.57;8.70;;;;;;;;;;5063680;28;20590;-62
2021/12/03 08:27:24;;;;;;;26.03;8.37;;;;;;;;;;5063874;28;20249;-62
2021/12/03 08:29:49;;;;;;;21.93;8.40;;;;;;;;;;5056584;28;20210;-62
2021/12/03 08:32:14;;;;;;;17.30;8.23;;;;;;;;;;5061628;28;20215;-62
2021/12/03 08:34:40;;;;;;;20.67;8.00;;;;;;;;;;5067568;28;20214;-62
2021/12/03 08:37:07;;;;;;;19.13;8.73;;;;;;;;;;5058932;28;20583;-62
2021/12/03 08:39:32;;;;;;;16.27;6.97;;;;;;;;;;5091056;28;20216;-62
2021/12/03 08:41:58;;;;;;;23.60;7.80;;;;;;;;;;5060451;28;20301;-62
2021/12/03 08:44:23;;;;;;;18.93;6.33;;;;;;;;;;5056476;28;20206;-62
2021/12/03 08:46:56;;;;;;;13.67;5.87;;;;;;;;;;5075042;28;20228;-62
2021/12/03 08:49:34;;;;;;;18.60;6.40;;;;;;;;;;5056833;28;20207;-62
2021/12/03 08:54:51;;;;;;;17.27;5.90;;;;;;;;;;5053308;28;20207;-62
2021/12/03 08:57:14;;;;;;;16.57;5.80;;;;;;;;;;5062415;28;20210;-62
2021/12/03 08:59:39;;;;;;;17.00;6.33;;;;;;;;;;5058968;28;20203;-61
2021/12/03 09:02:05;;;;;;;18.70;6.17;;;;;;;;;;5053005;28;20223;-62
2021/12/03 09:04:30;;;;;;;18.20;5.80;;;;;;;;;;5053176;28;20215;-62
2021/12/03 09:06:57;;;;;;;19.93;6.13;;;;;;;;;;5074647;28;20202;-62
2021/12/03 09:09:22;;;;;;;21.10;6.10;;;;;;;;;;5058959;28;20234;-62
2021/12/03 09:11:48;;;;;;;16.80;5.53;;;;;;;;;;5054482;28;20215;-62
2021/12/03 09:14:18;;;;;;;15.90;5.90;;;;;;;;;;5074012;28;20331;-62
2021/12/03 09:16:45;;;;;;;17.13;6.33;;;;;;;;;;5074526;28;20206;-62
2021/12/03 09:19:18;;;;;;;19.27;5.97;;;;;;;;;;5071929;28;20211;-62
2021/12/03 09:21:45;;;;;;;13.07;4.93;;;;;;;;;;5064459;28;20221;-62
2021/12/03 09:24:13;;;;;;;14.00;5.70;;;;;;;;;;5052900;28;20222;-62
2021/12/03 09:26:41;;;;;;;15.10;5.37;;;;;;;;;;5056139;28;20207;-62
2021/12/03 09:29:08;;;;;;;16.53;5.33;;;;;;;;;;5056444;28;20210;-62
2021/12/03 09:31:36;;;;;;;16.40;5.23;;;;;;;;;;5052918;28;20589;-62
2021/12/03 09:34:02;;;;;;;14.57;6.43;;;;;;;;;;5061300;28;20210;-63
2021/12/03 09:36:27;;;;;;;14.50;5.23;;;;;;;;;;5059899;28;20303;-61
2021/12/03 09:38:52;;;;;;;13.27;5.57;;;;;;;;;;5059189;28;20210;-61
2021/12/03 09:41:20;;;;;;;16.63;5.47;;;;;;;;;;5067267;28;20275;-61
2021/12/03 09:43:46;;;;;;;16.03;5.27;;;;;;;;;;5070504;28;20222;-61
2021/12/03 09:46:16;;;;;;;16.77;5.03;;;;;;;;;;5052577;28;20211;-61
2021/12/03 09:48:56;;;;;;;17.50;5.10;;;;;;;;;;5061850;28;20306;-60
2021/12/03 09:51:21;;;;;;;15.17;5.13;;;;;;;;;;5059076;28;20574;-61
2021/12/03 09:56:12;;;;;;;11.17;4.47;;;;;;;;;;5051988;28;20203;-60
2021/12/03 09:59:14;;;;;;;13.97;4.87;;;;;;;;;;5051995;28;20246;-60
2021/12/03 10:01:35;;;;;;;16.17;4.33;;;;;;;;;;5051650;28;20265;-60
2021/12/03 10:04:20;;;;;;;17.23;4.60;;;;;;;;;;5052937;28;20226;-61
2021/12/03 10:10:10;;;;;;;17.57;5.20;;;;;;;;;;5069167;28;20272;-61
2021/12/03 10:15:08;;;;;;;15.97;5.00;;;;;;;;;;5079793;28;20198;-61
2021/12/03 10:22:59;;;;;;;20.50;4.13;;;;;;;;;;5068860;28;20214;-61
2021/12/03 10:33:37;;;;;;;17.70;4.67;;;;;;;;;;5071040;28;20218;-61
2021/12/03 10:41:24;;;;;;;16.17;3.67;;;;;;;;;;5071339;28;20209;-61
2021/12/03 10:46:40;;;;;;;14.13;3.33;;;;;;;;;;5035092;28;20207;-61
2021/12/03 10:51:54;;;;;;;13.67;3.60;;;;;;;;;;5051606;28;20209;-61
2021/12/03 10:54:52;;;;;;;12.57;3.60;;;;;;;;;;5063834;28;20211;-61
2021/12/03 11:05:38;;;;;;;13.20;4.13;;;;;;;;;;5054631;28;20199;-62
2021/12/03 11:08:26;;;;;;;12.77;4.73;;;;;;;;;;5052001;28;20217;-61
2021/12/03 11:19:05;;;;;;;12.60;4.70;;;;;;;;;;5051155;28;20213;-61
2021/12/03 11:27:31;;;;;;;16.10;4.73;;;;;;;;;;5068477;28;20730;-61
2021/12/03 11:29:54;;;;;;;14.97;4.50;;;;;;;;;;5045877;28;20222;-61
2021/12/03 11:37:54;;;;;;;16.13;4.90;;;;;;;;;;5051993;28;20278;-61
2021/12/03 11:41:05;;;;;;;16.70;5.27;;;;;;;;;;5064920;28;20637;-61
2021/12/03 11:44:16;;;;;;;11.47;4.60;;;;;;;;;;5055376;28;20226;-61
2021/12/03 12:07:02;;;;;;;16.90;4.67;;;;;;;;;;5051586;28;20245;-62
2021/12/03 12:09:25;;;;;;;14.63;4.40;;;;;;;;;;5050811;28;20206;-62
2021/12/03 12:15:27;;;;;;;12.03;4.70;;;;;;;;;;5070662;28;20229;-62
2021/12/03 12:18:17;;;;;;;14.27;4.87;;;;;;;;;;5064707;28;20382;-62
2021/12/03 12:20:48;;;;;;;18.30;4.87;;;;;;;;;;5052821;28;20762;-61
2021/12/03 12:23:53;;;;;;;15.07;5.20;;;;;;;;;;5069710;28;20218;-61
2021/12/03 12:27:14;;;;;;;12.47;4.67;;;;;;;;;;5063339;28;20309;-62
2021/12/03 12:40:44;;;;;;;13.40;4.67;;;;;;;;;;5073207;28;20213;-62
2021/12/03 12:43:39;;;;;;;14.63;4.80;;;;;;;;;;5072590;28;20580;-62
2021/12/03 13:06:03;;;;;;;13.80;4.60;;;;;;;;;;5073717;28;20206;-61
2021/12/03 13:10:53;;;;;;;12.57;4.57;;;;;;;;;;5072116;28;20221;-61
2021/12/03 13:13:40;;;;;;;14.33;4.10;;;;;;;;;;5073881;28;20220;-61
2021/12/03 13:17:03;;;;;;;10.07;4.23;;;;;;;;;;5073159;28;20708;-61
2021/12/03 13:19:33;;;;;;;15.73;4.80;;;;;;;;;;5059756;28;20207;-61
2021/12/03 13:39:21;;;;;;;20.47;4.60;;;;;;;;;;5011629;28;20216;-62
2021/12/03 13:45:08;;;;;;;10.33;3.37;;;;;;;;;;5014312;28;20212;-62
2021/12/03 14:00:05;;;;;;;12.00;4.20;;;;;;;;;;5013247;28;20208;-61
2021/12/03 14:14:08;;;;;;;9.27;2.90;;;;;;;;;;5008659;28;20226;-61
2021/12/03 14:19:44;;;;;;;7.90;2.90;;;;;;;;;;5004384;28;20231;-61
2021/12/03 14:23:18;;;;;;;12.17;3.10;;;;;;;;;;4997312;28;20676;-61
2021/12/03 14:37:40;;;;;;;10.17;3.70;;;;;;;;;;4995668;28;20611;-61
2021/12/03 14:42:55;;;;;;;9.13;3.30;;;;;;;;;;5019619;28;20647;-61
2021/12/03 14:48:27;;;;;;;9.57;3.53;;;;;;;;;;4990214;28;20582;-61
2021/12/03 14:51:10;;;;;;;8.30;3.37;;;;;;;;;;5009539;28;20218;-61
2021/12/03 14:53:56;;;;;;;8.47;3.57;;;;;;;;;;5009373;28;20292;-61
2021/12/03 14:56:25;;;;;;;7.80;3.17;;;;;;;;;;5020308;28;20245;-62
2021/12/03 14:59:09;;;;;;;10.00;3.53;;;;;;;;;;5024217;28;20207;-61
2021/12/03 15:01:45;;;;;;;8.20;3.60;;;;;;;;;;5018987;28;20204;-62
2021/12/03 15:04:30;;;;;;;12.53;4.13;;;;;;;;;;5004327;28;20224;-62
2021/12/03 15:09:32;;;;;;;10.30;4.03;;;;;;;;;;4983273;28;20846;-62
2021/12/03 15:12:19;;;;;;;10.97;4.43;;;;;;;;;;4987452;28;20266;-62
2021/12/03 15:15:19;;;;;;;10.83;3.83;;;;;;;;;;5000117;28;20307;-61
2021/12/03 15:21:03;;;;;;;10.30;3.80;;;;;;;;;;5018747;28;20254;-62
2021/12/03 15:23:34;;;;;;;11.13;3.90;;;;;;;;;;5003039;28;20672;-62
2021/12/03 15:26:11;;;;;;;11.40;4.43;;;;;;;;;;5018444;28;20227;-62
2021/12/03 15:31:52;;;;;;;8.90;4.70;;;;;;;;;;5023541;28;20813;-62
2021/12/03 15:39:40;;;;;;;9.90;5.60;;;;;;;;;;5015208;28;20208;-62
2021/12/03 15:54:08;;;;;;;9.37;4.87;;;;;;;;;;4997026;28;20236;-63
2021/12/03 15:58:31;;;;;;;7.80;5.23;;;;;;;;;;4976129;28;20312;-63
2021/12/03 16:03:52;;;;;;;9.07;4.40;;;;;;;;;;4999197;28;20254;-63
2021/12/03 16:06:28;;;;;;;8.97;4.70;;;;;;;;;;4984646;28;20315;-63
2021/12/03 16:08:57;;;;;;;8.47;5.40;;;;;;;;;;5002701;28;20643;-63
2021/12/03 16:11:31;;;;;;;8.63;5.13;;;;;;;;;;4991308;28;20215;-63
2021/12/03 16:14:13;;;;;;;7.83;5.03;;;;;;;;;;5003168;28;20205;-63
2021/12/03 16:17:02;;;;;;;7.80;5.40;;;;;;;;;;5007675;28;20208;-63
2021/12/03 16:24:55;;;;;;;7.23;5.30;;;;;;;;;;4999379;28;20216;-63
2021/12/03 16:43:56;;;;;;;9.73;5.90;;;;;;;;;;4999516;28;20218;-63
2021/12/03 16:46:34;;;;;;;7.57;5.67;;;;;;;;;;4997757;28;20702;-63
2021/12/03 16:49:42;;;;;;;9.23;5.57;;;;;;;;;;5002196;28;20232;-63
2021/12/03 16:51:50;;;;;;;8.27;5.68;;;;;;;;;;5006682;28;20676;-63
2021/12/03 16:54:22;;;;;;;8.07;5.53;;;;;;;;;;5006508;28;20266;-62
2021/12/03 16:56:50;;;;;;;10.40;6.13;;;;;;;;;;5007586;28;20240;-63
2021/12/03 16:59:16;;;;;;;7.17;5.13;;;;;;;;;;5006972;28;20216;-63
2021/12/03 17:01:56;;;;;;;7.93;5.20;;;;;;;;;;5006210;28;20239;-62
2021/12/03 17:04:35;;;;;;;7.37;5.47;;;;;;;;;;5003930;28;20706;-63
2021/12/03 17:12:36;;;;;;;9.33;5.63;;;;;;;;;;4988556;28;20271;-62
2021/12/03 17:18:30;;;;;;;7.20;4.90;;;;;;;;;;4991218;28;20209;-62
2021/12/03 17:29:08;;;;;;;6.70;4.73;;;;;;;;;;4995260;28;20742;-62
2021/12/03 17:47:30;;;;;;;6.33;4.40;;;;;;;;;;5004524;28;20252;-61
2021/12/03 17:50:09;;;;;;;6.23;4.00;;;;;;;;;;4984581;28;20216;-61
2021/12/03 17:53:02;;;;;;;5.33;3.57;;;;;;;;;;4996856;28;20924;-61
2021/12/03 17:58:24;;;;;;;5.30;4.10;;;;;;;;;;5003306;28;20295;-61
2021/12/03 18:01:03;;;;;;;6.13;4.30;;;;;;;;;;5005110;28;20213;-61
2021/12/03 18:08:31;;;;;;;5.50;4.40;;;;;;;;;;4979030;28;20221;-61
2021/12/03 18:13:57;;;;;;;5.37;4.10;;;;;;;;;;5001158;28;20272;-61
2021/12/03 18:19:22;;;;;;;7.33;5.07;;;;;;;;;;4999259;28;20729;-61
2021/12/03 18:43:31;;;;;;;5.93;4.83;;;;;;;;;;5002545;28;20475;-61
2021/12/03 18:44:06;;;;;;;7.13;5.70;;;;;;;;;;5005542;28;20230;-61
2021/12/03 18:47:11;;;;;;;6.77;5.70;;;;;;;;;;5003168;28;20434;-61
2021/12/03 18:49:31;;;;;;;6.43;5.80;;;;;;;;;;4995563;28;20699;-61
2021/12/03 18:52:12;;;;;;;8.00;6.27;;;;;;;;;;4996263;28;20230;-61
2021/12/03 18:54:45;;;;;;;7.00;6.03;;;;;;;;;;5001054;28;20703;-61
2021/12/03 18:57:14;;;;;;;7.07;5.70;;;;;;;;;;5003770;28;20209;-61
2021/12/03 18:59:51;;;;;;;6.90;5.87;;;;;;;;;;5005154;28;20620;-61
2021/12/03 19:02:16;;;;;;;6.93;6.00;;;;;;;;;;4997901;28;20292;-61
2021/12/03 19:04:56;;;;;;;6.83;5.73;;;;;;;;;;4986389;28;20296;-61
2021/12/03 19:07:27;;;;;;;7.20;6.23;;;;;;;;;;4985736;28;20208;-61
2021/12/03 19:09:55;;;;;;;7.27;5.70;;;;;;;;;;4992036;28;20283;-61
2021/12/03 19:12:24;;;;;;;7.70;6.60;;;;;;;;;;4996241;28;20213;-61
2021/12/03 19:14:52;;;;;;;8.53;6.07;;;;;;;;;;4981508;28;20224;-61
2021/12/03 19:17:18;;;;;;;8.40;6.33;;;;;;;;;;4985239;28;20364;-61
2021/12/03 19:19:45;;;;;;;7.17;6.47;;;;;;;;;;4986005;28;20254;-61
2021/12/03 19:22:10;;;;;;;8.90;6.83;;;;;;;;;;4984323;28;20267;-61
2021/12/03 19:24:36;;;;;;;7.90;6.97;;;;;;;;;;4985883;28;20216;-61
2021/12/03 19:27:02;;;;;;;7.47;6.67;;;;;;;;;;4985681;28;20720;-61
2021/12/03 19:29:28;;;;;;;8.00;6.87;;;;;;;;;;5018766;28;20215;-61
2021/12/03 19:31:53;;;;;;;7.90;6.77;;;;;;;;;;5002325;28;20220;-61
2021/12/03 19:34:19;;;;;;;8.10;6.50;;;;;;;;;;4996775;28;20303;-62
2021/12/03 19:36:46;;;;;;;6.83;6.13;;;;;;;;;;5010932;28;20247;-64
2021/12/03 19:39:12;;;;;;;7.90;7.10;;;;;;;;;;4998874;28;20435;-62
2021/12/03 19:41:44;;;;;;;8.10;7.03;;;;;;;;;;5019406;28;20430;-63
2021/12/03 19:44:13;;;;;;;8.10;7.10;;;;;;;;;;5003596;28;20221;-63